Time;durP1;ratioP1;P1;durP2;ratioP2;P2;SDS_P1;SDS_P2;PMS_P1;PMS_P2;Temp;Humidity;BMP_temperature;BMP_pressure;BME280_temperature;BME280_humidity;BME280_pressure;Samples;Min_cycle;Max_cycle;Signal;HPM_P1;HPM_P2
2024/02/10 00:01:01;;;;;;;;;2.00;2.00;;;;;13.24;93.30;97777.72;6319870;22;44891;-80
2024/02/10 00:03:29;;;;;;;;;4.00;4.00;;;;;13.20;93.41;97771.66;6319613;22;44781;-80
2024/02/10 00:05:55;;;;;;;;;1.67;1.67;;;;;13.24;93.95;97769.72;6316909;22;46961;-80
2024/02/10 00:08:22;;;;;;;;;3.00;3.00;;;;;13.24;94.01;97782.19;6316032;22;44899;-80
2024/02/10 00:10:48;;;;;;;;;1.00;1.00;;;;;13.24;94.19;97769.72;6317678;22;44783;-80
2024/02/10 00:13:15;;;;;;;;;4.00;4.00;;;;;13.28;94.05;97762.44;6317973;22;44870;-80
2024/02/10 00:15:41;;;;;;;;;2.33;2.00;;;;;13.33;94.52;97756.00;6319111;22;47254;-80
2024/02/10 00:18:08;;;;;;;;;2.33;2.33;;;;;13.30;94.52;97761.47;6318977;22;45279;-80
2024/02/10 00:20:34;;;;;;;;;2.00;2.00;;;;;13.30;94.55;97756.13;6292900;22;45438;-79
2024/02/10 00:23:54;;;;;;;;;4.00;4.00;;;;;13.45;94.60;97743.03;6292381;22;45300;-79
2024/02/10 00:26:21;;;;;;;;;3.67;3.67;;;;;13.33;95.14;97729.31;6317767;22;45234;-80
2024/02/10 00:28:50;;;;;;;;;3.00;3.00;;;;;13.37;95.15;97730.00;6320208;22;44959;-78
2024/02/10 00:31:15;;;;;;;;;2.00;2.00;;;;;13.33;95.19;97739.09;6291075;22;44709;-79
2024/02/10 00:33:45;;;;;;;;;6.00;4.67;;;;;13.33;95.17;97734.66;6319103;22;44933;-79
2024/02/10 00:36:11;;;;;;;;;2.00;2.00;;;;;13.37;95.47;97720.22;6318766;22;46064;-79
2024/02/10 00:38:38;;;;;;;;;4.33;4.33;;;;;13.34;95.36;97715.00;6292587;22;44958;-79
2024/02/10 00:41:05;;;;;;;;;4.00;4.00;;;;;13.31;95.68;97712.50;6291016;22;44759;-79
2024/02/10 00:43:31;;;;;;;;;3.33;2.67;;;;;13.27;95.62;97720.66;6318615;22;45433;-80
2024/02/10 00:45:59;;;;;;;;;4.33;4.33;;;;;13.21;95.70;97729.84;6291054;22;46654;-79
2024/02/10 00:48:26;;;;;;;;;3.00;3.00;;;;;13.23;95.44;97743.09;6292434;22;44839;-80
2024/02/10 00:50:52;;;;;;;;;4.33;3.00;;;;;13.23;95.53;97746.66;6317654;22;45276;-78
2024/02/10 00:53:19;;;;;;;;;2.00;2.00;;;;;13.25;95.58;97736.78;6317533;22;44923;-79
2024/02/10 00:55:45;;;;;;;;;4.33;2.67;;;;;13.19;95.99;97727.22;6290592;22;45159;-79
2024/02/10 00:58:11;;;;;;;;;3.00;3.00;;;;;13.12;96.49;97736.44;6316634;22;45711;-79
2024/02/10 01:00:36;;;;;;;;;3.00;2.67;;;;;13.05;96.53;97735.00;6319602;22;44829;-79
2024/02/10 01:03:08;;;;;;;;;4.00;2.33;;;;;13.06;97.06;97736.72;6291559;22;44832;-79
2024/02/10 01:05:40;;;;;;;;;4.67;3.33;;;;;12.98;97.06;97741.50;6318448;22;45219;-80
2024/02/10 01:08:06;;;;;;;;;6.33;2.00;;;;;12.98;97.26;97744.19;6289770;22;45400;-80
2024/02/10 01:10:31;;;;;;;;;4.00;2.00;;;;;12.96;97.95;97751.38;6320399;22;45298;-79
2024/02/10 01:13:03;;;;;;;;;4.67;4.67;;;;;12.99;98.34;97760.13;6291366;22;45063;-79
2024/02/10 01:15:30;;;;;;;;;5.33;4.00;;;;;12.99;98.39;97757.47;6292608;22;46797;-80
2024/02/10 01:17:56;;;;;;;;;4.33;4.33;;;;;12.97;99.17;97764.66;6318750;22;44800;-79
2024/02/10 01:20:22;;;;;;;;;2.33;2.00;;;;;12.96;98.75;97757.56;6319470;22;44796;-79
2024/02/10 01:22:49;;;;;;;;;5.00;3.67;;;;;13.02;99.59;97754.63;6318805;22;44923;-78
2024/02/10 01:25:15;;;;;;;;;5.00;4.00;;;;;12.97;99.72;97750.47;6291138;22;45214;-79
2024/02/10 01:27:43;;;;;;;;;4.67;3.00;;;;;12.98;99.57;97766.38;6291890;22;45398;-79
2024/02/10 01:30:10;;;;;;;;;2.67;2.67;;;;;12.96;100.00;97760.25;6292607;22;44716;-80
2024/02/10 01:32:36;;;;;;;;;4.67;4.67;;;;;12.96;100.00;97760.25;6292499;22;44872;-80
2024/02/10 01:35:03;;;;;;;;;5.33;4.33;;;;;12.97;100.00;97770.00;6319534;22;45123;-79
2024/02/10 01:37:30;;;;;;;;;6.00;5.67;;;;;12.99;100.00;97769.94;6318866;22;44827;-79
2024/02/10 01:39:55;;;;;;;;;5.00;4.00;;;;;12.92;100.00;97761.31;6320098;22;44789;-79
2024/02/10 01:42:27;;;;;;;;;4.00;3.00;;;;;13.01;100.00;97760.94;6320465;22;44849;-80
2024/02/10 01:44:52;;;;;;;;;9.67;5.67;;;;;12.86;100.00;97750.06;6320066;22;45063;-79
2024/02/10 01:47:20;;;;;;;;;4.33;4.33;;;;;12.87;100.00;97752.66;6291961;22;44934;-80
2024/02/10 01:49:46;;;;;;;;;5.67;5.67;;;;;12.81;100.00;97748.44;6291913;22;44874;-79
2024/02/10 01:52:12;;;;;;;;;7.00;5.67;;;;;12.79;100.00;97749.47;6289925;22;44874;-81
2024/02/10 01:54:39;;;;;;;;;5.00;5.00;;;;;12.81;100.00;97758.25;6290440;22;45214;-80
2024/02/10 01:57:06;;;;;;;;;7.33;6.00;;;;;12.77;100.00;97768.19;6317253;22;44874;-79
2024/02/10 01:59:37;;;;;;;;;6.33;6.33;;;;;12.86;100.00;97766.06;6290884;22;44744;-79
2024/02/10 02:02:04;;;;;;;;;7.33;7.33;;;;;12.87;100.00;97776.66;6316607;22;44840;-79
2024/02/10 02:04:31;;;;;;;;;5.00;5.00;;;;;12.92;100.00;97776.47;6317560;22;45108;-79
2024/02/10 02:07:00;;;;;;;;;8.67;8.67;;;;;12.97;100.00;97780.66;6290619;22;45428;-79
2024/02/10 02:09:28;;;;;;;;;9.67;8.00;;;;;12.99;100.00;97785.94;6319113;22;44854;-79
2024/02/10 02:11:53;;;;;;;;;8.67;6.00;;;;;12.94;100.00;97796.78;6292099;22;45308;-79
2024/02/10 02:14:19;;;;;;;;;5.67;5.33;;;;;12.92;100.00;97804.00;6291071;22;46635;-79
2024/02/10 02:16:48;;;;;;;;;8.67;8.00;;;;;12.94;100.00;97807.47;6317551;22;45720;-80
2024/02/10 02:19:15;;;;;;;;;5.67;5.67;;;;;12.98;100.00;97793.06;6292196;22;44780;-80
2024/02/10 02:21:42;;;;;;;;;8.33;7.33;;;;;13.09;100.00;97794.38;6318555;22;45239;-78
2024/02/10 02:24:09;;;;;;;;;7.67;7.67;;;;;13.10;100.00;97791.66;6317767;22;45080;-79
2024/02/10 02:26:35;;;;;;;;;9.00;8.00;;;;;12.93;100.00;97779.06;6318481;22;45573;-79
2024/02/10 02:29:00;;;;;;;;;7.33;7.33;;;;;12.90;100.00;97776.53;6319503;22;45411;-80
2024/02/10 02:31:26;;;;;;;;;6.33;6.33;;;;;12.89;100.00;97782.81;6319718;22;44772;-79
2024/02/10 02:33:53;;;;;;;;;10.00;10.00;;;;;12.81;100.00;97783.13;6291888;22;46823;-79
2024/02/10 02:36:19;;;;;;;;;9.33;9.33;;;;;12.79;100.00;97786.78;6317584;22;45379;-79
2024/02/10 02:38:51;;;;;;;;;9.00;9.00;;;;;12.71;100.00;97773.78;6319625;22;45304;-79
2024/02/10 02:41:17;;;;;;;;;9.00;8.33;;;;;12.74;100.00;97775.44;6319173;22;44828;-79
2024/02/10 02:43:45;;;;;;;;;9.33;9.33;;;;;12.72;100.00;97769.31;6319279;22;45518;-79
2024/02/10 02:46:18;;;;;;;;;8.67;8.00;;;;;12.79;100.00;97765.47;6290854;22;44755;-79
2024/02/10 02:48:43;;;;;;;;;10.67;10.00;;;;;12.65;100.00;97759.84;6292016;22;44892;-79
2024/02/10 02:51:09;;;;;;;;;10.67;8.00;;;;;12.59;100.00;97758.31;6291782;22;45494;-80
2024/02/10 02:53:36;;;;;;;;;9.33;8.67;;;;;12.55;100.00;97762.88;6290317;22;47143;-80
2024/02/10 02:56:01;;;;;;;;;9.33;7.67;;;;;12.53;100.00;97751.41;6318510;22;44838;-80
2024/02/10 02:58:28;;;;;;;;;8.67;8.00;;;;;12.47;100.00;97748.16;6320387;22;44889;-80
2024/02/10 03:00:54;;;;;;;;;13.00;11.00;;;;;12.45;100.00;97750.03;6317588;22;44758;-80
2024/02/10 03:03:19;;;;;;;;;11.00;6.00;;;;;12.43;100.00;97757.22;6319992;22;45229;-80
2024/02/10 03:05:45;;;;;;;;;11.00;10.33;;;;;12.39;100.00;97754.66;6318513;22;45605;-80
2024/02/10 03:08:10;;;;;;;;;10.00;10.00;;;;;12.33;100.00;97746.06;6318953;22;44739;-80
2024/02/10 03:10:36;;;;;;;;;11.00;11.00;;;;;12.32;100.00;97739.88;6289503;22;45438;-80
2024/02/10 03:13:02;;;;;;;;;9.00;9.00;;;;;12.26;100.00;97744.56;6291375;22;46983;-80
2024/02/10 03:15:27;;;;;;;;;10.00;9.00;;;;;12.20;100.00;97737.72;6316749;22;45243;-79
2024/02/10 03:17:54;;;;;;;;;10.67;9.67;;;;;12.17;100.00;97736.00;6317148;22;45362;-80
2024/02/10 03:20:23;;;;;;;;;14.67;10.67;;;;;12.15;100.00;97734.34;6290424;22;45501;-79
2024/02/10 03:23:02;;;;;;;;;10.67;10.33;;;;;12.13;100.00;97729.06;6289111;22;46954;-79
2024/02/10 03:25:28;;;;;;;;;10.67;10.67;;;;;12.13;100.00;97728.22;6267063;22;44931;-79
2024/02/10 03:27:54;;;;;;;;;9.33;9.33;;;;;12.11;100.00;97725.59;6317233;22;45143;-79
2024/02/10 03:30:21;;;;;;;;;7.00;7.00;;;;;12.06;100.00;97726.72;6317948;22;45026;-79
2024/02/10 03:32:46;;;;;;;;;8.33;8.33;;;;;12.06;100.00;97738.25;6318307;22;44949;-79
2024/02/10 03:35:12;;;;;;;;;9.00;9.00;;;;;12.06;100.00;97722.28;6289057;22;45199;-79
2024/02/10 03:37:37;;;;;;;;;8.33;8.33;;;;;12.07;100.00;97725.81;6317541;22;44754;-80
2024/02/10 03:40:09;;;;;;;;;11.67;11.67;;;;;12.07;100.00;97713.34;6290499;22;44985;-79
2024/02/10 03:42:39;;;;;;;;;10.33;10.33;;;;;12.06;100.00;97724.94;6290944;22;47207;-78
2024/02/10 03:45:05;;;;;;;;;12.00;9.33;;;;;11.98;100.00;97713.72;6266126;22;45678;-79
2024/02/10 03:47:31;;;;;;;;;10.33;9.67;;;;;11.95;100.00;97714.69;6319608;22;45027;-79
2024/02/10 03:49:58;;;;;;;;;9.33;9.33;;;;;11.96;100.00;97718.25;6291457;22;44820;-79
2024/02/10 03:52:25;;;;;;;;;11.00;11.00;;;;;11.96;100.00;97716.44;6318095;22;44998;-79
2024/02/10 03:54:52;;;;;;;;;11.00;11.00;;;;;11.98;100.00;97708.41;6317734;22;44925;-79
2024/02/10 03:57:19;;;;;;;;;9.67;9.33;;;;;11.94;100.00;97701.47;6289302;22;45372;-79
2024/02/10 03:59:45;;;;;;;;;11.00;11.00;;;;;11.93;100.00;97697.91;6317842;22;45506;-78
2024/02/10 04:02:10;;;;;;;;;10.67;10.33;;;;;11.93;100.00;97695.25;6317973;22;44935;-79
2024/02/10 04:04:36;;;;;;;;;14.67;14.00;;;;;11.88;100.00;97691.03;6316142;22;45273;-79
2024/02/10 04:07:02;;;;;;;;;11.00;10.00;;;;;11.91;100.00;97701.56;6318757;22;45306;-79
2024/02/10 04:09:28;;;;;;;;;10.00;9.00;;;;;11.90;100.00;97698.06;6291717;22;44902;-79
2024/02/10 04:11:55;;;;;;;;;13.00;9.00;;;;;11.88;100.00;97699.03;6317815;22;45118;-79
2024/02/10 04:14:22;;;;;;;;;12.33;12.33;;;;;11.84;100.00;97695.59;6289763;22;44830;-79
2024/02/10 04:16:52;;;;;;;;;14.00;12.67;;;;;11.88;100.00;97701.69;6291695;22;44796;-79
2024/02/10 04:19:18;;;;;;;;;12.33;12.33;;;;;11.87;100.00;97694.63;6293328;22;44867;-79
2024/02/10 04:21:46;;;;;;;;;12.00;10.67;;;;;11.90;100.00;97694.53;6292459;22;47166;-79
2024/02/10 04:24:16;;;;;;;;;12.00;9.67;;;;;11.90;100.00;97694.53;6291026;22;45353;-81
2024/02/10 04:26:42;;;;;;;;;13.00;10.67;;;;;11.88;100.00;97693.69;6291013;22;44803;-80
2024/02/10 04:29:08;;;;;;;;;9.33;8.33;;;;;11.91;100.00;97690.94;6321301;22;44830;-80
2024/02/10 04:31:39;;;;;;;;;10.33;9.67;;;;;11.91;100.00;97697.09;6319510;22;45263;-79
2024/02/10 04:34:05;;;;;;;;;13.67;13.67;;;;;11.86;100.00;97693.75;6319159;22;45298;-80
2024/02/10 04:36:31;;;;;;;;;14.33;13.33;;;;;11.86;100.00;97693.75;6290430;22;44784;-80
2024/02/10 04:38:57;;;;;;;;;13.67;13.67;;;;;11.89;100.00;97692.78;6317216;22;44846;-80
2024/02/10 04:41:23;;;;;;;;;7.00;7.00;;;;;11.84;100.00;97692.94;6318037;22;45115;-80
2024/02/10 04:43:48;;;;;;;;;14.00;11.50;;;;;11.84;100.00;97694.75;6288740;22;44842;-80
2024/02/10 04:46:17;;;;;;;;;13.67;9.00;;;;;11.78;100.00;97686.06;6315958;22;45342;-80
2024/02/10 04:48:43;;;;;;;;;15.67;11.33;;;;;11.79;100.00;97697.56;6317024;22;44785;-80
2024/02/10 04:51:08;;;;;;;;;11.00;10.00;;;;;11.73;100.00;97690.69;6317511;22;45198;-80
2024/02/10 04:53:34;;;;;;;;;11.33;11.33;;;;;11.71;100.00;97689.03;6318027;22;44797;-80
2024/02/10 04:55:59;;;;;;;;;11.33;11.33;;;;;11.71;100.00;97684.56;6288760;22;45267;-80
2024/02/10 04:58:24;;;;;;;;;9.00;9.00;;;;;11.70;100.00;97701.47;6317436;22;44834;-80
2024/02/10 05:00:50;;;;;;;;;10.00;10.00;;;;;11.69;100.00;97705.06;6316462;22;45344;-80
2024/02/10 05:03:15;;;;;;;;;10.00;10.00;;;;;11.65;100.00;97695.44;6315891;22;44798;-80
2024/02/10 05:05:40;;;;;;;;;11.67;11.67;;;;;11.63;100.00;97697.31;6315690;22;45198;-80
2024/02/10 05:08:13;;;;;;;;;9.67;8.67;;;;;11.65;100.00;97692.78;6288760;22;44921;-80
2024/02/10 05:10:40;;;;;;;;;11.67;10.00;;;;;11.64;100.00;97709.69;6288010;22;46769;-80
2024/02/10 05:13:05;;;;;;;;;13.67;11.00;;;;;11.63;100.00;97699.09;6290156;22;44919;-80
2024/02/10 05:15:33;;;;;;;;;15.33;13.00;;;;;11.61;100.00;97683.19;6290754;22;44730;-80
2024/02/10 05:18:04;;;;;;;;;12.67;12.67;;;;;11.53;100.00;97680.84;6289308;22;44898;-80
2024/02/10 05:20:30;;;;;;;;;18.33;16.33;;;;;11.47;100.00;97681.06;6290399;22;47559;-80
2024/02/10 05:23:00;;;;;;;;;16.00;14.00;;;;;11.52;100.00;97692.41;6289105;22;44814;-80
2024/02/10 05:25:34;;;;;;;;;15.33;15.00;;;;;11.48;100.00;97697.91;6316108;22;44908;-80
2024/02/10 05:28:01;;;;;;;;;16.00;15.00;;;;;11.46;100.00;97695.31;6264476;22;45826;-80
2024/02/10 05:30:27;;;;;;;;;12.67;12.33;;;;;11.39;100.00;97689.38;6287762;22;47177;-80
2024/02/10 05:32:54;;;;;;;;;9.00;9.00;;;;;11.46;100.00;97695.31;6315655;22;45095;-80
2024/02/10 05:35:20;;;;;;;;;11.67;10.33;;;;;11.41;100.00;97692.84;6289294;22;45288;-80
2024/02/10 05:37:49;;;;;;;;;15.33;14.67;;;;;11.48;100.00;97693.47;6315120;22;44769;-80
2024/02/10 05:40:17;;;;;;;;;15.67;13.00;;;;;11.47;100.00;97693.50;6285567;22;47005;-80
2024/02/10 05:42:45;;;;;;;;;15.00;13.67;;;;;11.44;100.00;97696.31;6313487;22;44886;-80
2024/02/10 05:45:11;;;;;;;;;12.67;11.00;;;;;11.43;100.00;97690.09;6315021;22;45396;-80
2024/02/10 05:47:39;;;;;;;;;10.67;10.33;;;;;11.43;100.00;97711.38;6287835;22;45337;-80
2024/02/10 05:50:18;;;;;;;;;14.33;14.33;;;;;11.47;100.00;97706.81;6287464;22;47220;-80
2024/02/10 05:52:49;;;;;;;;;16.33;14.33;;;;;11.54;100.00;97701.19;6315174;22;44974;-80
2024/02/10 05:55:25;;;;;;;;;16.00;11.00;;;;;11.61;100.00;97704.47;6288940;22;45237;-80
2024/02/10 05:57:55;;;;;;;;;23.00;19.00;;;;;11.67;100.00;97698.06;6316144;22;44849;-80
2024/02/10 06:00:21;;;;;;;;;18.67;15.33;;;;;11.72;100.00;97704.94;6310982;22;45580;-80
2024/02/10 06:02:47;;;;;;;;;14.00;11.67;;;;;11.71;100.00;97699.66;6316549;22;44862;-80
2024/02/10 06:05:14;;;;;;;;;16.00;16.00;;;;;11.78;100.00;97699.38;6316730;22;45037;-80
2024/02/10 06:07:43;;;;;;;;;19.00;16.67;;;;;11.85;100.00;97707.97;6288398;22;44984;-80
2024/02/10 06:10:12;;;;;;;;;15.00;15.00;;;;;11.87;100.00;97700.78;6287527;22;49138;-80
2024/02/10 06:12:40;;;;;;;;;17.33;15.00;;;;;11.97;100.00;97704.00;6316461;22;45421;-80
2024/02/10 06:15:09;;;;;;;;;11.33;11.00;;;;;11.92;100.00;97703.34;6317096;22;44832;-80
2024/02/10 06:17:38;;;;;;;;;11.00;11.00;;;;;11.92;100.00;97706.00;6290396;22;44973;-80
2024/02/10 06:20:06;;;;;;;;;15.00;15.00;;;;;11.89;100.00;97698.97;6318456;22;45968;-80
2024/02/10 06:22:32;;;;;;;;;15.33;15.33;;;;;11.91;100.00;97707.75;6291057;22;45233;-80
2024/02/10 06:24:58;;;;;;;;;13.67;13.67;;;;;11.87;100.00;97697.28;6288166;22;44940;-80
2024/02/10 06:27:23;;;;;;;;;16.33;14.67;;;;;11.83;100.00;97696.53;6317818;22;45330;-80
2024/02/10 06:29:49;;;;;;;;;15.33;13.00;;;;;11.76;100.00;97693.25;6316524;22;46033;-79
2024/02/10 06:32:14;;;;;;;;;15.67;15.33;;;;;11.75;100.00;97696.81;6316762;22;45207;-79
2024/02/10 06:34:42;;;;;;;;;19.00;19.00;;;;;11.71;100.00;97687.22;6291110;22;45347;-80
2024/02/10 06:37:08;;;;;;;;;16.33;12.33;;;;;11.70;100.00;97692.63;6317325;22;44982;-80
2024/02/10 06:39:33;;;;;;;;;17.67;15.67;;;;;11.71;100.00;97691.69;6287125;22;45876;-80
2024/02/10 06:41:59;;;;;;;;;16.00;14.33;;;;;11.70;100.00;97698.81;6316979;22;45330;-79
2024/02/10 06:44:26;;;;;;;;;17.67;17.67;;;;;11.65;100.00;97695.44;6289443;22;45258;-79
2024/02/10 06:46:51;;;;;;;;;19.67;17.00;;;;;11.63;100.00;97707.09;6318544;22;45702;-79
2024/02/10 06:49:20;;;;;;;;;18.33;16.00;;;;;11.59;100.00;97704.56;6289007;22;47274;-79
2024/02/10 06:51:50;;;;;;;;;17.33;17.33;;;;;11.63;100.00;97691.97;6288810;22;44755;-80
2024/02/10 06:54:15;;;;;;;;;18.00;17.33;;;;;11.54;100.00;97697.69;6316265;22;45471;-80
2024/02/10 06:56:44;;;;;;;;;14.67;14.33;;;;;11.52;100.00;97697.72;6289188;22;44994;-80
2024/02/10 06:59:09;;;;;;;;;16.00;14.33;;;;;11.51;100.00;97696.00;6317380;22;45157;-80
2024/02/10 07:01:35;;;;;;;;;17.33;15.33;;;;;11.53;100.00;97695.94;6316811;22;45856;-80
2024/02/10 07:04:00;;;;;;;;;22.33;18.67;;;;;11.52;100.00;97699.53;6288278;22;45267;-79
2024/02/10 07:06:28;;;;;;;;;19.67;16.33;;;;;11.53;100.00;97695.94;6287375;22;44868;-80
2024/02/10 07:08:54;;;;;;;;;17.67;16.00;;;;;11.51;100.00;97698.69;6289445;22;45016;-80
2024/02/10 07:11:19;;;;;;;;;19.00;16.00;;;;;11.50;100.00;97691.59;6315392;22;45349;-80
2024/02/10 07:13:44;;;;;;;;;15.00;14.00;;;;;11.51;100.00;97704.00;6315855;22;45183;-80
2024/02/10 07:16:10;;;;;;;;;18.00;15.33;;;;;11.49;100.00;97691.66;6289453;22;45298;-80
2024/02/10 07:18:46;;;;;;;;;14.67;13.00;;;;;11.46;100.00;97695.31;6289273;22;47193;-80
2024/02/10 07:21:12;;;;;;;;;16.33;15.00;;;;;11.49;100.00;97691.66;6296779;22;44949;-80
2024/02/10 07:23:39;;;;;;;;;15.00;13.00;;;;;11.48;100.00;97689.94;6327110;22;44906;-81
2024/02/10 07:26:05;;;;;;;;;15.00;15.00;;;;;11.50;100.00;97693.41;6325766;22;45125;-81
2024/02/10 07:28:31;;;;;;;;;14.00;12.67;;;;;11.49;100.00;97694.31;6313455;22;45350;-81
2024/02/10 07:30:57;;;;;;;;;15.00;14.67;;;;;11.45;100.00;97682.91;6295054;22;44851;-82
2024/02/10 07:36:44;;;;;;;;;13.00;10.00;;;;;11.51;100.00;97693.34;6265766;22;45414;-81
2024/02/10 07:46:55;;;;;;;;;15.33;13.67;;;;;11.40;100.00;97679.59;6303257;22;46400;-79
2024/02/10 07:49:22;;;;;;;;;14.00;13.67;;;;;11.52;100.00;97710.19;6307239;22;46039;-78
2024/02/10 07:51:48;;;;;;;;;14.33;13.67;;;;;11.51;100.00;97709.31;6270609;22;44772;-79
2024/02/10 07:54:14;;;;;;;;;11.00;11.00;;;;;11.53;100.00;97706.56;6295696;22;45391;-78
2024/02/10 07:56:41;;;;;;;;;11.67;11.67;;;;;11.60;100.00;97708.94;6294664;22;45074;-78
2024/02/10 07:59:07;;;;;;;;;16.00;15.00;;;;;11.51;100.00;97704.00;6323997;22;45299;-79
2024/02/10 08:01:39;;;;;;;;;16.00;14.00;;;;;11.68;100.00;97705.13;6323986;22;44744;-80
2024/02/10 08:04:09;;;;;;;;;18.67;15.00;;;;;11.61;100.00;97704.47;6327215;22;44901;-79
2024/02/10 08:06:35;;;;;;;;;13.67;13.67;;;;;11.65;100.00;97700.78;6326006;22;44754;-79
2024/02/10 08:09:01;;;;;;;;;15.67;15.67;;;;;11.66;100.00;97701.66;6331423;22;45147;-79
2024/02/10 08:11:27;;;;;;;;;14.33;14.33;;;;;11.74;100.00;97699.56;6330774;22;44830;-79
2024/02/10 08:13:55;;;;;;;;;14.33;14.33;;;;;11.85;100.00;97707.97;6330439;22;44822;-80
2024/02/10 08:16:24;;;;;;;;;13.33;13.00;;;;;11.86;100.00;97707.06;6327394;22;44737;-79
2024/02/10 08:18:49;;;;;;;;;14.33;14.00;;;;;11.87;100.00;97707.94;6322337;22;45067;-80
2024/02/10 08:21:21;;;;;;;;;14.00;11.33;;;;;12.03;100.00;97717.06;6286736;22;44946;-79
2024/02/10 08:23:49;;;;;;;;;15.33;14.00;;;;;12.03;100.00;97717.06;6292875;22;44778;-79
2024/02/10 08:26:17;;;;;;;;;12.33;12.33;;;;;12.10;100.00;97721.22;6294005;22;44903;-80
2024/02/10 08:28:47;;;;;;;;;16.00;15.00;;;;;12.15;100.00;97719.22;6321959;22;45338;-80
2024/02/10 08:31:20;;;;;;;;;14.67;14.67;;;;;12.26;100.00;97728.56;6280701;22;46389;-81
2024/02/10 08:41:50;;;;;;;;;13.33;13.00;;;;;12.60;100.00;97736.03;6359895;22;44932;-80
2024/02/10 08:44:19;;;;;;;;;18.67;15.00;;;;;12.64;100.00;97740.28;6290504;22;46886;-81
2024/02/10 08:49:21;;;;;;;;;12.00;9.33;;;;;12.71;100.00;97731.13;6276969;22;46279;-79
2024/02/10 08:51:49;;;;;;;;;17.33;16.33;;;;;12.76;100.00;97733.56;6303246;22;44894;-79
2024/02/10 08:54:15;;;;;;;;;19.67;18.33;;;;;12.83;100.00;97737.72;6330836;22;44793;-80
2024/02/10 08:56:42;;;;;;;;;18.33;16.67;;;;;12.87;100.00;97736.66;6300126;22;45061;-80
2024/02/10 09:01:43;;;;;;;;;17.00;17.00;;;;;12.98;100.00;97734.38;6241354;22;45729;-82
2024/02/10 09:06:43;;;;;;;;;17.67;15.33;;;;;12.85;100.00;97714.53;6324622;22;44886;-85
2024/02/10 09:09:10;;;;;;;;;21.00;16.00;;;;;12.85;100.00;97717.19;6301277;22;45400;-87
2024/02/10 09:11:37;;;;;;;;;17.00;17.00;;;;;12.91;100.00;97716.91;6296617;22;45251;-83
2024/02/10 09:14:08;;;;;;;;;16.33;15.33;;;;;12.94;100.00;97715.91;6298961;22;44877;-85
2024/02/10 09:16:41;;;;;;;;;15.67;15.33;;;;;13.16;100.00;97738.03;6257377;22;46798;-84
2024/02/10 09:19:06;;;;;;;;;20.00;16.67;;;;;13.06;100.00;97733.19;6265957;22;46934;-83
2024/02/10 09:21:35;;;;;;;;;19.33;18.00;;;;;12.96;100.00;97714.03;6239913;22;44849;-84
2024/02/10 09:29:14;;;;;;;;;19.67;17.33;;;;;13.10;100.00;97753.44;6227636;22;46650;-81
2024/02/10 09:43:06;;;;;;;;;18.00;18.00;;;;;13.33;100.00;97750.66;6228872;22;46612;-80
2024/02/10 09:45:34;;;;;;;;;19.33;15.00;;;;;13.31;100.00;97746.31;6272071;22;45720;-79
2024/02/10 09:48:01;;;;;;;;;21.33;19.67;;;;;13.31;100.00;97755.22;6248217;22;45370;-77
2024/02/10 09:50:28;;;;;;;;;18.00;17.33;;;;;13.31;100.00;97747.19;6247286;22;46961;-78
2024/02/10 09:52:55;;;;;;;;;23.67;22.00;;;;;13.31;100.00;97741.88;6247988;22;45606;-78
2024/02/10 09:55:20;;;;;;;;;21.00;18.00;;;;;13.30;100.00;97729.44;6247963;22;45607;-78
2024/02/10 09:57:50;;;;;;;;;22.33;21.33;;;;;13.39;100.00;97733.47;6248256;22;45375;-77
2024/02/10 10:00:17;;;;;;;;;18.00;17.00;;;;;13.38;100.00;97735.28;6248088;22;48030;-78
2024/02/10 10:02:49;;;;;;;;;22.33;21.67;;;;;13.44;100.00;97731.47;6275923;22;45350;-76
2024/02/10 10:05:19;;;;;;;;;18.33;17.67;;;;;13.50;100.00;97725.00;6248178;22;45415;-77
2024/02/10 10:07:51;;;;;;;;;19.67;17.67;;;;;13.62;100.00;97731.59;6247963;22;45512;-78
2024/02/10 10:10:24;;;;;;;;;22.00;20.67;;;;;13.82;100.00;97736.84;6276107;22;45362;-77
2024/02/10 10:12:49;;;;;;;;;25.00;22.33;;;;;13.84;100.00;97731.44;6247424;22;45378;-76
2024/02/10 10:15:15;;;;;;;;;17.33;15.67;;;;;13.85;100.00;97725.16;6277128;22;45333;-76
2024/02/10 10:17:40;;;;;;;;;22.00;18.00;;;;;13.94;100.00;97730.06;6249381;22;45303;-77
2024/02/10 10:20:09;;;;;;;;;21.33;19.33;;;;;13.98;100.00;97732.50;6275945;22;45342;-77
2024/02/10 10:22:37;;;;;;;;;26.00;23.00;;;;;14.10;100.00;97744.41;6278128;22;45747;-82
2024/02/10 10:25:05;;;;;;;;;17.00;15.00;;;;;14.18;100.00;97744.03;6252658;22;45447;-82
2024/02/10 10:27:31;;;;;;;;;22.00;22.00;;;;;14.23;100.00;97736.66;6279752;22;45379;-82
2024/02/10 10:29:57;;;;;;;;;21.67;18.67;;;;;14.19;100.00;97740.41;6248990;22;46761;-82
2024/02/10 10:32:26;;;;;;;;;24.67;20.00;;;;;14.14;100.00;97739.78;6279791;22;45266;-82
2024/02/10 10:34:56;;;;;;;;;20.00;20.00;;;;;14.12;100.00;97733.66;6251194;22;45395;-82
2024/02/10 10:37:25;;;;;;;;;21.33;20.00;;;;;14.16;100.00;97736.09;6280372;22;45334;-82
2024/02/10 10:39:51;;;;;;;;;22.67;22.67;;;;;14.04;100.00;97736.69;6308893;22;46456;-83
2024/02/10 10:42:20;;;;;;;;;26.00;23.67;;;;;14.09;100.00;97733.78;6309014;22;45886;-82
2024/02/10 10:44:50;;;;;;;;;29.67;24.33;;;;;14.14;100.00;97737.97;6308645;22;45716;-82
2024/02/10 10:47:24;;;;;;;;;23.67;21.00;;;;;14.14;100.00;97724.63;6308934;22;45404;-83
2024/02/10 10:49:54;;;;;;;;;19.33;19.33;;;;;14.20;100.00;97729.66;6309114;22;45385;-83
2024/02/10 10:52:23;;;;;;;;;21.00;20.67;;;;;14.31;100.00;97730.94;6281514;22;44867;-83
2024/02/10 10:54:53;;;;;;;;;18.33;18.33;;;;;14.26;100.00;97735.63;6312148;22;45405;-82
2024/02/10 10:57:22;;;;;;;;;24.00;21.33;;;;;14.28;99.78;97720.38;6311955;22;45345;-81
2024/02/10 11:00:15;;;;;;;;;20.33;20.00;;;;;14.33;99.75;97729.91;6282189;22;47342;-82
2024/02/10 11:02:43;;;;;;;;;20.33;19.33;;;;;14.27;99.38;97724.88;6311230;22;45330;-82
2024/02/10 11:05:12;;;;;;;;;24.00;18.00;;;;;14.25;99.14;97729.44;6282153;22;45347;-83
2024/02/10 11:07:39;;;;;;;;;21.33;21.33;;;;;14.24;98.89;97729.50;6296779;22;45341;-83
2024/02/10 11:10:05;;;;;;;;;23.67;22.33;;;;;14.20;99.13;97726.97;6280487;22;48043;-83
2024/02/10 11:12:34;;;;;;;;;25.00;22.67;;;;;14.20;99.14;97732.34;6281305;22;45350;-83
2024/02/10 11:15:03;;;;;;;;;22.33;22.33;;;;;14.15;99.13;97723.66;6309386;22;45351;-83
2024/02/10 11:17:34;;;;;;;;;21.67;21.67;;;;;14.20;98.89;97732.34;6279297;22;45755;-83
2024/02/10 11:20:11;;;;;;;;;23.33;21.67;;;;;14.25;98.38;97721.41;6305574;22;47146;-83
2024/02/10 11:22:37;;;;;;;;;25.00;24.33;;;;;14.16;98.74;97729.88;6308787;22;45420;-84
2024/02/10 11:25:12;;;;;;;;;20.00;19.33;;;;;14.21;99.09;97728.69;6303742;22;45609;-83
2024/02/10 11:27:39;;;;;;;;;27.67;24.33;;;;;14.16;99.30;97735.25;6303358;22;45583;-81
2024/02/10 11:30:07;;;;;;;;;28.00;26.33;;;;;14.05;99.56;97718.84;6307467;22;45420;-80
2024/02/10 11:32:34;;;;;;;;;28.33;24.33;;;;;13.99;100.00;97725.34;6280999;22;45435;-81
2024/02/10 11:35:00;;;;;;;;;23.67;23.67;;;;;13.98;100.00;97720.97;6308901;22;45363;-80
2024/02/10 11:37:30;;;;;;;;;24.33;24.33;;;;;14.06;100.00;97721.44;6309375;22;45744;-81
2024/02/10 11:39:57;;;;;;;;;26.33;23.33;;;;;14.04;100.00;97714.44;6309050;22;45641;-82
2024/02/10 11:42:23;;;;;;;;;29.00;25.33;;;;;13.91;100.00;97715.03;6309594;22;45420;-81
2024/02/10 11:44:50;;;;;;;;;29.67;28.00;;;;;13.88;100.00;97714.31;6308835;22;45295;-81
2024/02/10 11:47:15;;;;;;;;;26.00;25.00;;;;;13.85;100.00;97707.31;6308125;22;45823;-81
2024/02/10 11:49:40;;;;;;;;;27.00;26.67;;;;;13.87;100.00;97712.59;6310036;22;46169;-81
2024/02/10 11:52:07;;;;;;;;;28.33;28.00;;;;;13.89;100.00;97702.69;6280827;22;46006;-81
2024/02/10 11:54:39;;;;;;;;;31.33;30.33;;;;;13.90;100.00;97707.09;6282062;22;45370;-81
2024/02/10 11:57:05;;;;;;;;;29.67;29.67;;;;;13.95;100.00;97705.06;6308446;22;45283;-81
2024/02/10 11:59:33;;;;;;;;;23.00;23.00;;;;;14.02;100.00;97698.50;6309619;22;45393;-81
2024/02/10 12:01:59;;;;;;;;;29.00;28.00;;;;;14.02;100.00;97698.50;6311193;22;45423;-80